Time;durP1;ratioP1;P1;durP2;ratioP2;P2;SDS_P1;SDS_P2;PMS_P1;PMS_P2;Temp;Humidity;BMP_temperature;BMP_pressure;BME280_temperature;BME280_humidity;BME280_pressure;Samples;Min_cycle;Max_cycle;Signal;HPM_P1;HPM_P2
2022/03/15 00:02:32;;;;;;;4.88;1.85;;;19.10;44.80;;;;;;6197090;28;20600;-69
2022/03/15 00:05:33;;;;;;;2.72;1.63;;;19.10;44.80;;;;;;6197601;28;20031;-69
2022/03/15 00:08:33;;;;;;;2.92;1.90;;;19.10;44.80;;;;;;6197706;28;20494;-69
2022/03/15 00:11:34;;;;;;;2.63;1.52;;;19.10;44.80;;;;;;6197479;28;20496;-69
2022/03/15 00:14:38;;;;;;;2.78;1.70;;;19.00;44.70;;;;;;6197186;28;20092;-69
2022/03/15 00:17:44;;;;;;;2.65;1.75;;;19.10;45.50;;;;;;6198094;28;20042;-69
2022/03/15 00:20:45;;;;;;;2.45;1.88;;;19.10;44.80;;;;;;6197481;28;20019;-69
2022/03/15 00:23:45;;;;;;;2.83;1.85;;;19.00;44.80;;;;;;6197294;28;20073;-68
2022/03/15 00:26:47;;;;;;;2.17;1.55;;;19.10;44.80;;;;;;6196495;28;20061;-69
2022/03/15 00:29:48;;;;;;;2.63;1.85;;;19.00;44.80;;;;;;6195537;28;20061;-68
2022/03/15 00:32:50;;;;;;;2.08;1.67;;;19.00;44.80;;;;;;6197074;28;20065;-69
2022/03/15 00:35:51;;;;;;;1.80;1.40;;;19.00;44.80;;;;;;6196111;28;20038;-69
2022/03/15 00:38:51;;;;;;;2.47;1.75;;;19.10;44.90;;;;;;6197376;28;20049;-68
2022/03/15 00:41:52;;;;;;;2.60;1.63;;;19.00;44.90;;;;;;6196717;28;20088;-68
2022/03/15 00:44:52;;;;;;;3.33;1.88;;;19.10;44.90;;;;;;6196341;28;20475;-69
2022/03/15 00:47:54;;;;;;;2.25;1.63;;;19.10;44.90;;;;;;6196842;28;20229;-68
2022/03/15 00:50:54;;;;;;;2.90;1.75;;;19.00;44.90;;;;;;6196201;28;20130;-70
2022/03/15 00:53:57;;;;;;;1.90;1.48;;;19.00;44.80;;;;;;6195891;28;20037;-69
2022/03/15 00:56:58;;;;;;;1.55;1.17;;;19.10;44.90;;;;;;6196034;28;20038;-69
2022/03/15 00:59:58;;;;;;;2.28;1.52;;;19.10;44.90;;;;;;6196246;28;20050;-69
2022/03/15 01:02:59;;;;;;;2.13;1.60;;;19.10;44.90;;;;;;6196102;28;20153;-69
2022/03/15 01:06:00;;;;;;;2.45;1.58;;;19.10;45.00;;;;;;6195859;28;20030;-69
2022/03/15 01:09:02;;;;;;;2.95;1.65;;;19.10;45.00;;;;;;6196196;28;20026;-69
2022/03/15 01:12:03;;;;;;;2.00;1.65;;;19.10;44.90;;;;;;6196421;28;20040;-69
2022/03/15 01:15:06;;;;;;;2.47;1.33;;;19.00;44.90;;;;;;6196286;28;20053;-69
2022/03/15 01:18:07;;;;;;;2.10;1.55;;;19.00;44.90;;;;;;6195338;28;20087;-69
2022/03/15 01:21:08;;;;;;;1.80;1.40;;;19.10;45.00;;;;;;6195859;28;20030;-68
2022/03/15 01:24:09;;;;;;;1.58;1.25;;;19.00;44.90;;;;;;6195570;28;20026;-69
2022/03/15 01:27:09;;;;;;;2.22;1.60;;;19.00;45.00;;;;;;6195495;28;20599;-68
2022/03/15 01:30:10;;;;;;;1.92;1.30;;;19.00;45.00;;;;;;6195248;28;20031;-68
2022/03/15 01:33:11;;;;;;;2.35;1.55;;;19.10;45.00;;;;;;6195570;28;20037;-69
2022/03/15 01:36:12;;;;;;;2.13;1.50;;;19.10;45.00;;;;;;6195207;28;20025;-69
2022/03/15 01:39:12;;;;;;;1.88;1.23;;;19.00;44.90;;;;;;6195205;28;20058;-68
2022/03/15 01:42:13;;;;;;;1.90;1.40;;;19.10;45.00;;;;;;6194952;28;20026;-68
2022/03/15 01:45:13;;;;;;;2.70;1.40;;;19.00;45.00;;;;;;6195325;28;20026;-69
2022/03/15 01:48:14;;;;;;;1.70;1.23;;;19.00;45.00;;;;;;6195174;28;20521;-69
2022/03/15 01:51:15;;;;;;;1.98;1.40;;;19.10;45.10;;;;;;6194676;28;20263;-69
2022/03/15 01:54:17;;;;;;;2.25;1.40;;;19.00;45.00;;;;;;6194950;28;20026;-69
2022/03/15 01:57:18;;;;;;;2.75;1.50;;;19.00;45.10;;;;;;6194896;28;20093;-69
2022/03/15 02:00:19;;;;;;;1.55;1.35;;;19.10;45.10;;;;;;6194517;28;20025;-69
2022/03/15 02:03:19;;;;;;;1.65;1.40;;;19.00;45.00;;;;;;6194735;28;20026;-69
2022/03/15 02:06:20;;;;;;;2.60;1.38;;;19.10;45.10;;;;;;6194723;28;20400;-69
2022/03/15 02:09:20;;;;;;;2.22;1.25;;;19.00;45.10;;;;;;6194455;28;20023;-68
2022/03/15 02:12:21;;;;;;;1.95;1.45;;;19.00;45.10;;;;;;6194599;28;20030;-69
2022/03/15 02:15:22;;;;;;;1.60;1.15;;;19.00;45.10;;;;;;6194336;28;20245;-69
2022/03/15 02:18:25;;;;;;;2.50;1.60;;;19.00;45.10;;;;;;6194326;28;20073;-69
2022/03/15 02:21:27;;;;;;;3.38;1.40;;;19.10;45.10;;;;;;6194262;28;20384;-69
2022/03/15 02:24:28;;;;;;;2.30;1.50;;;19.10;45.20;;;;;;6193683;28;20102;-69
2022/03/15 02:27:28;;;;;;;1.75;1.40;;;19.10;45.20;;;;;;6193726;28;20050;-69
2022/03/15 02:30:30;;;;;;;1.98;1.42;;;19.10;45.20;;;;;;6194103;28;20604;-69
2022/03/15 02:33:31;;;;;;;1.67;1.13;;;19.00;45.10;;;;;;6193866;28;20101;-69
2022/03/15 02:36:32;;;;;;;1.70;1.15;;;19.00;45.10;;;;;;6193951;28;20026;-67
2022/03/15 02:39:33;;;;;;;2.03;1.30;;;19.10;45.20;;;;;;6194114;28;20030;-69
2022/03/15 02:42:33;;;;;;;1.63;1.23;;;19.00;45.10;;;;;;6194018;28;20085;-68
2022/03/15 02:45:34;;;;;;;1.63;1.20;;;19.00;45.10;;;;;;6193819;28;20022;-69
2022/03/15 02:48:35;;;;;;;2.15;1.40;;;19.00;45.10;;;;;;6193986;28;20018;-69
2022/03/15 02:51:36;;;;;;;1.20;1.08;;;19.10;45.20;;;;;;6193225;28;20026;-69
2022/03/15 02:54:40;;;;;;;1.20;1.00;;;19.10;45.20;;;;;;6193967;28;20034;-69
2022/03/15 02:57:41;;;;;;;1.27;1.07;;;19.00;45.20;;;;;;6193687;28;20366;-69
2022/03/15 03:00:41;;;;;;;1.63;1.30;;;19.00;45.20;;;;;;6193870;28;20185;-69
2022/03/15 03:03:42;;;;;;;1.80;1.15;;;19.00;45.20;;;;;;6193670;28;20042;-69
2022/03/15 03:06:43;;;;;;;2.03;1.30;;;19.10;45.30;;;;;;6193719;28;20097;-69
2022/03/15 03:09:43;;;;;;;1.35;0.95;;;19.00;45.20;;;;;;6193424;28;20026;-69
2022/03/15 03:12:45;;;;;;;1.77;1.08;;;19.10;45.30;;;;;;6193906;28;20097;-69
2022/03/15 03:15:45;;;;;;;1.00;0.80;;;19.10;46.00;;;;;;6193494;28;20022;-69
2022/03/15 03:18:46;;;;;;;1.05;0.82;;;19.10;45.30;;;;;;6193444;28;20152;-69
2022/03/15 03:21:48;;;;;;;1.60;1.15;;;19.00;45.10;;;;;;6193458;28;20069;-69
2022/03/15 03:24:50;;;;;;;1.15;0.90;;;19.00;45.20;;;;;;6193441;28;20397;-68
2022/03/15 03:27:50;;;;;;;1.23;1.10;;;19.00;45.20;;;;;;6193055;28;20046;-68
2022/03/15 03:30:51;;;;;;;1.45;1.10;;;19.00;45.20;;;;;;6193678;28;20030;-68
2022/03/15 03:33:52;;;;;;;1.83;1.08;;;19.10;45.30;;;;;;6193498;28;20102;-69
2022/03/15 03:36:52;;;;;;;1.67;1.17;;;19.10;45.30;;;;;;6194164;28;20148;-69
2022/03/15 03:39:53;;;;;;;2.75;1.27;;;19.00;45.20;;;;;;6193456;28;20534;-69
2022/03/15 03:42:53;;;;;;;1.40;1.23;;;19.00;45.20;;;;;;6193304;28;20474;-69
2022/03/15 03:45:54;;;;;;;1.35;1.15;;;19.00;45.20;;;;;;6192349;28;20054;-69
2022/03/15 03:48:55;;;;;;;1.90;1.10;;;19.00;45.20;;;;;;6193335;28;20015;-69
2022/03/15 03:51:57;;;;;;;1.63;1.23;;;19.00;45.30;;;;;;6192873;28;20018;-68
2022/03/15 03:54:58;;;;;;;1.33;0.98;;;19.10;45.30;;;;;;6193467;28;20113;-68
2022/03/15 03:57:59;;;;;;;1.30;0.98;;;19.00;45.30;;;;;;6193547;28;20444;-69
2022/03/15 04:01:01;;;;;;;1.40;1.10;;;19.00;45.30;;;;;;6193482;28;20390;-68
2022/03/15 04:04:05;;;;;;;1.40;0.85;;;19.10;45.30;;;;;;6192525;28;20034;-69
2022/03/15 04:07:07;;;;;;;1.00;0.90;;;19.00;45.30;;;;;;6197487;28;20029;-69
2022/03/15 04:10:09;;;;;;;1.50;1.05;;;19.00;45.30;;;;;;6197398;28;20030;-69
2022/03/15 04:13:10;;;;;;;1.10;0.82;;;19.10;45.40;;;;;;6197083;28;20035;-69
2022/03/15 04:16:10;;;;;;;1.35;1.00;;;19.00;45.30;;;;;;6197253;28;20065;-70
2022/03/15 04:19:11;;;;;;;1.00;0.80;;;19.00;45.40;;;;;;6197388;28;20425;-69
2022/03/15 04:22:12;;;;;;;1.10;0.95;;;19.00;45.30;;;;;;6197514;28;20109;-70
2022/03/15 04:25:12;;;;;;;1.33;0.80;;;19.10;45.40;;;;;;6196259;28;20555;-69
2022/03/15 04:28:14;;;;;;;1.08;0.98;;;19.00;45.30;;;;;;6196804;28;20060;-69
2022/03/15 04:31:14;;;;;;;1.30;0.80;;;19.00;45.30;;;;;;6197046;28;20034;-69
2022/03/15 04:34:15;;;;;;;1.10;1.00;;;19.10;45.40;;;;;;6196934;28;20033;-69
2022/03/15 04:37:15;;;;;;;1.33;1.08;;;19.00;45.40;;;;;;6196715;28;20477;-69
2022/03/15 04:40:17;;;;;;;1.52;0.93;;;19.00;45.40;;;;;;6195529;28;20125;-69
2022/03/15 04:43:18;;;;;;;1.00;0.82;;;19.00;45.40;;;;;;6196453;28;20030;-70
2022/03/15 04:46:18;;;;;;;1.42;0.98;;;19.10;45.40;;;;;;6196835;28;20433;-69
2022/03/15 04:49:19;;;;;;;1.25;1.10;;;19.00;45.40;;;;;;6196352;28;20482;-70
2022/03/15 04:52:20;;;;;;;0.90;0.80;;;19.10;45.50;;;;;;6194640;28;20092;-70
2022/03/15 04:55:20;;;;;;;1.27;0.90;;;19.00;45.40;;;;;;6196177;28;20045;-69
2022/03/15 04:58:21;;;;;;;1.27;0.80;;;19.00;45.40;;;;;;6196127;28;20038;-70
2022/03/15 05:01:21;;;;;;;0.80;0.80;;;19.00;45.40;;;;;;6196039;28;20018;-69
2022/03/15 05:04:22;;;;;;;1.00;0.80;;;19.00;45.40;;;;;;6196271;28;20433;-69
2022/03/15 05:07:22;;;;;;;1.48;1.13;;;19.00;45.40;;;;;;6195911;28;20014;-69
2022/03/15 05:13:45;;;;;;;1.17;0.90;;;19.00;45.40;;;;;;6195684;28;20109;-69
2022/03/15 05:16:46;;;;;;;1.25;0.90;;;19.10;45.60;;;;;;6194968;28;20058;-70
2022/03/15 05:19:47;;;;;;;1.25;0.90;;;19.00;45.40;;;;;;6195935;28;20297;-69
2022/03/15 05:22:48;;;;;;;1.10;0.90;;;19.00;45.50;;;;;;6195352;28;20109;-69
2022/03/15 05:25:48;;;;;;;1.13;1.02;;;19.00;45.40;;;;;;6195081;28;20050;-69
2022/03/15 05:28:49;;;;;;;1.10;0.90;;;19.00;45.40;;;;;;6195488;28;20026;-70
2022/03/15 05:31:50;;;;;;;1.25;0.98;;;19.00;45.40;;;;;;6195798;28;20122;-69
2022/03/15 05:34:51;;;;;;;1.30;1.00;;;19.10;45.50;;;;;;6195495;28;20092;-69
2022/03/15 05:37:52;;;;;;;1.27;1.05;;;19.00;45.40;;;;;;6195205;28;20567;-69
2022/03/15 05:40:53;;;;;;;1.77;1.10;;;19.00;45.40;;;;;;6195099;28;20034;-69
2022/03/15 05:43:55;;;;;;;1.10;0.90;;;19.10;45.40;;;;;;6194899;28;20394;-70
2022/03/15 05:46:55;;;;;;;1.48;1.08;;;19.00;45.40;;;;;;6194855;28;20089;-69
2022/03/15 05:49:56;;;;;;;0.98;0.85;;;19.00;45.40;;;;;;6195763;28;20485;-70
2022/03/15 05:52:57;;;;;;;1.13;0.90;;;19.00;45.40;;;;;;6194488;28;20030;-70
2022/03/15 05:55:58;;;;;;;1.13;0.90;;;19.10;45.40;;;;;;6195279;28;20663;-70
2022/03/15 05:58:58;;;;;;;1.70;1.02;;;19.10;45.40;;;;;;6194608;28;20030;-69
2022/03/15 06:01:59;;;;;;;0.80;0.70;;;19.10;45.40;;;;;;6184246;28;20232;-70
2022/03/15 06:05:01;;;;;;;1.98;1.02;;;19.10;45.40;;;;;;6173787;28;20034;-70
2022/03/15 06:08:02;;;;;;;3.35;0.90;;;19.10;45.40;;;;;;6194491;28;20057;-69
2022/03/15 06:11:03;;;;;;;1.00;0.88;;;19.10;45.40;;;;;;6194546;28;20057;-70
2022/03/15 06:14:03;;;;;;;1.48;0.93;;;19.10;45.40;;;;;;6194704;28;20030;-70
2022/03/15 06:17:04;;;;;;;1.17;0.98;;;19.10;45.50;;;;;;6194451;28;20331;-70
2022/03/15 06:20:05;;;;;;;1.20;0.90;;;19.10;45.50;;;;;;6194278;28;20029;-69
2022/03/15 06:23:06;;;;;;;2.40;1.10;;;19.10;45.40;;;;;;6194491;28;20481;-70
2022/03/15 06:26:06;;;;;;;1.00;0.90;;;19.10;45.40;;;;;;6193608;28;20062;-70
2022/03/15 06:29:07;;;;;;;0.90;0.77;;;19.10;45.40;;;;;;6193571;28;20033;-70
2022/03/15 06:32:08;;;;;;;0.95;0.85;;;19.10;45.40;;;;;;6193024;28;20496;-69
2022/03/15 06:35:10;;;;;;;1.25;0.90;;;19.10;45.50;;;;;;6193778;28;20583;-70
2022/03/15 06:38:11;;;;;;;1.58;0.90;;;19.10;45.40;;;;;;6193909;28;20035;-69
2022/03/15 06:41:12;;;;;;;1.33;1.00;;;19.10;45.40;;;;;;6194451;28;20374;-69
2022/03/15 06:44:12;;;;;;;1.38;0.85;;;19.10;45.40;;;;;;6194003;28;20051;-70
2022/03/15 06:47:13;;;;;;;1.23;0.90;;;19.10;45.40;;;;;;6193807;28;20089;-69
2022/03/15 06:50:14;;;;;;;1.48;0.82;;;19.10;45.40;;;;;;6193778;28;20498;-69
2022/03/15 06:53:15;;;;;;;0.73;0.73;;;19.20;45.50;;;;;;6193865;28;20466;-70
2022/03/15 06:56:15;;;;;;;1.38;0.90;;;19.20;44.90;;;;;;6193828;28;20069;-70
2022/03/15 06:59:16;;;;;;;1.13;0.95;;;19.20;45.00;;;;;;6191614;28;20034;-70
2022/03/15 07:02:16;;;;;;;1.73;1.00;;;19.20;45.10;;;;;;6202036;28;20060;-70
2022/03/15 07:05:17;;;;;;;1.50;1.08;;;19.20;45.10;;;;;;6202712;28;20034;-70
2022/03/15 07:08:18;;;;;;;1.20;0.90;;;19.20;45.10;;;;;;6203109;28;20022;-70
2022/03/15 07:11:18;;;;;;;1.48;1.10;;;19.10;45.00;;;;;;6220145;28;20026;-70
2022/03/15 07:14:19;;;;;;;1.95;1.20;;;19.20;45.80;;;;;;6219538;28;20030;-70
2022/03/15 07:17:20;;;;;;;1.60;1.00;;;19.10;45.10;;;;;;6214634;28;20109;-70
2022/03/15 07:20:22;;;;;;;1.23;0.90;;;19.20;45.20;;;;;;6195620;28;20109;-68
2022/03/15 07:23:23;;;;;;;2.00;0.93;;;19.10;45.10;;;;;;6195695;28;20022;-69
2022/03/15 07:26:23;;;;;;;1.05;0.90;;;19.10;45.10;;;;;;6194893;28;20051;-70
2022/03/15 07:29:24;;;;;;;1.85;1.08;;;19.10;45.20;;;;;;6195534;28;20150;-69
2022/03/15 07:32:24;;;;;;;1.55;1.13;;;19.20;45.30;;;;;;6195729;28;20022;-70
2022/03/15 07:35:25;;;;;;;1.20;0.98;;;19.20;45.30;;;;;;6196183;28;20085;-70
2022/03/15 07:38:26;;;;;;;3.10;1.02;;;19.10;45.20;;;;;;6196685;28;20026;-70
2022/03/15 07:41:26;;;;;;;1.95;1.13;;;19.10;45.20;;;;;;6200192;28;20499;-70
2022/03/15 07:44:27;;;;;;;1.88;1.02;;;19.20;45.30;;;;;;6199795;28;20481;-70
2022/03/15 07:47:28;;;;;;;0.80;0.80;;;19.20;45.30;;;;;;6199774;28;20035;-69
2022/03/15 07:50:28;;;;;;;1.88;1.10;;;19.10;45.20;;;;;;6199772;28;20108;-70
2022/03/15 07:53:29;;;;;;;1.65;0.90;;;19.10;45.30;;;;;;6199606;28;20033;-69
2022/03/15 07:56:29;;;;;;;1.63;1.13;;;19.10;45.30;;;;;;6199609;28;20033;-70
2022/03/15 07:59:30;;;;;;;1.20;1.00;;;19.10;45.30;;;;;;6199807;28;20038;-70
2022/03/15 08:02:30;;;;;;;1.10;0.80;;;19.10;45.20;;;;;;6199657;28;20038;-70
2022/03/15 08:05:31;;;;;;;2.58;0.95;;;19.10;45.20;;;;;;6199554;28;20497;-69
2022/03/15 08:08:31;;;;;;;1.60;1.10;;;19.20;45.30;;;;;;6199259;28;20073;-69
2022/03/15 08:11:33;;;;;;;1.60;1.10;;;19.10;45.20;;;;;;6199617;28;20112;-70
2022/03/15 08:14:33;;;;;;;1.77;1.10;;;19.20;45.30;;;;;;6198884;28;20089;-69
2022/03/15 08:17:35;;;;;;;1.77;1.10;;;19.10;45.20;;;;;;6199290;28;20042;-69
2022/03/15 08:20:40;;;;;;;1.17;0.88;;;19.10;45.20;;;;;;6198985;28;20097;-69
2022/03/15 08:23:41;;;;;;;1.10;1.00;;;19.20;45.30;;;;;;6198087;28;20040;-70
2022/03/15 08:26:41;;;;;;;1.13;0.98;;;19.20;45.30;;;;;;6198572;28;20047;-70
2022/03/15 08:29:43;;;;;;;1.40;1.15;;;19.10;45.30;;;;;;6198836;28;20508;-69
2022/03/15 08:32:44;;;;;;;2.65;1.30;;;19.10;45.30;;;;;;6198919;28;20117;-68
2022/03/15 08:35:44;;;;;;;1.85;1.00;;;19.10;45.30;;;;;;6198795;28;20481;-69
2022/03/15 08:38:45;;;;;;;1.00;0.90;;;19.10;45.30;;;;;;6198216;28;20038;-69
2022/03/15 08:41:46;;;;;;;0.80;0.80;;;19.20;45.40;;;;;;6198469;28;20417;-69
2022/03/15 08:44:46;;;;;;;1.33;1.00;;;19.20;45.40;;;;;;6198723;28;20872;-70
2022/03/15 08:47:47;;;;;;;1.55;1.05;;;19.20;45.40;;;;;;6198464;28;20022;-70
2022/03/15 08:50:47;;;;;;;1.83;1.30;;;19.20;45.40;;;;;;6197348;28;20105;-70
2022/03/15 08:53:48;;;;;;;0.80;0.80;;;19.10;45.30;;;;;;6198470;28;20033;-70
2022/03/15 08:56:49;;;;;;;1.80;1.17;;;19.10;45.30;;;;;;6198688;28;20500;-70
2022/03/15 08:59:49;;;;;;;1.80;1.10;;;19.10;45.30;;;;;;6198512;28;20037;-69
2022/03/15 09:02:50;;;;;;;1.42;1.08;;;19.10;45.30;;;;;;6197969;28;20022;-69
2022/03/15 09:05:51;;;;;;;1.52;0.90;;;19.10;45.30;;;;;;6198265;28;20034;-68
2022/03/15 09:08:51;;;;;;;1.58;1.13;;;19.20;45.40;;;;;;6197785;28;20030;-68
2022/03/15 09:11:52;;;;;;;1.15;0.75;;;19.10;45.30;;;;;;6198555;28;20041;-69
2022/03/15 09:14:53;;;;;;;1.30;1.08;;;19.10;45.40;;;;;;6197735;28;20491;-68
2022/03/15 09:17:54;;;;;;;2.92;1.02;;;19.20;45.50;;;;;;6197835;28;20042;-68
2022/03/15 09:20:54;;;;;;;1.40;1.00;;;19.20;45.30;;;;;;6197923;28;20509;-68
2022/03/15 09:23:57;;;;;;;1.30;1.00;;;19.20;45.40;;;;;;6197863;28;20022;-69
2022/03/15 09:26:58;;;;;;;1.48;1.05;;;19.20;45.40;;;;;;6197258;28;20050;-68
2022/03/15 09:29:59;;;;;;;1.65;0.85;;;19.20;45.40;;;;;;6197557;28;20027;-69
2022/03/15 09:33:00;;;;;;;1.40;1.00;;;19.20;45.40;;;;;;6197571;28;20030;-68
2022/03/15 09:36:01;;;;;;;1.20;0.88;;;19.20;45.40;;;;;;6197801;28;20061;-68
2022/03/15 09:39:05;;;;;;;1.13;0.90;;;19.20;45.40;;;;;;6197426;28;20082;-69
2022/03/15 09:42:08;;;;;;;3.00;1.00;;;19.20;45.40;;;;;;6196967;28;20037;-69
2022/03/15 09:45:09;;;;;;;1.30;0.98;;;19.20;45.40;;;;;;6196969;28;20409;-68
2022/03/15 09:48:12;;;;;;;1.33;0.90;;;19.20;45.40;;;;;;6197058;28;20030;-68
2022/03/15 09:51:14;;;;;;;0.95;0.80;;;19.20;45.40;;;;;;6197146;28;20038;-68
2022/03/15 09:54:15;;;;;;;1.60;1.02;;;19.20;45.40;;;;;;6196258;28;20370;-68
2022/03/15 09:57:15;;;;;;;1.55;1.00;;;19.20;45.40;;;;;;6196890;28;20113;-69
2022/03/15 10:00:16;;;;;;;1.10;0.80;;;19.20;45.50;;;;;;6196900;28;20026;-68
2022/03/15 10:03:17;;;;;;;1.88;1.00;;;19.20;45.50;;;;;;6196904;28;20022;-68
2022/03/15 10:06:20;;;;;;;1.63;1.02;;;19.20;45.50;;;;;;6196768;28;20541;-68
2022/03/15 10:09:27;;;;;;;1.90;1.00;;;19.20;45.50;;;;;;6196845;28;20018;-68
2022/03/15 10:12:28;;;;;;;1.13;0.90;;;19.20;45.60;;;;;;6196539;28;20508;-69
2022/03/15 10:15:28;;;;;;;1.45;1.10;;;19.20;45.60;;;;;;6196449;28;20034;-69
2022/03/15 10:18:29;;;;;;;1.23;0.82;;;19.20;45.50;;;;;;6196379;28;20500;-69
2022/03/15 10:21:42;;;;;;;1.30;1.10;;;19.20;45.50;;;;;;6196502;28;20026;-69
2022/03/15 10:24:43;;;;;;;2.15;0.93;;;19.20;45.50;;;;;;6196029;28;20041;-68
2022/03/15 10:27:49;;;;;;;1.92;1.20;;;19.20;45.60;;;;;;6195603;28;20072;-68
2022/03/15 10:30:50;;;;;;;1.30;0.98;;;19.20;45.40;;;;;;6196593;28;20113;-69
2022/03/15 10:34:00;;;;;;;1.92;1.20;;;19.20;45.40;;;;;;6196030;28;20188;-69
2022/03/15 10:37:02;;;;;;;0.95;0.80;;;19.20;45.40;;;;;;6196276;28;20069;-69
2022/03/15 10:40:03;;;;;;;1.27;0.90;;;19.20;45.50;;;;;;6195653;28;20057;-69
2022/03/15 10:43:28;;;;;;;1.55;1.08;;;19.20;45.50;;;;;;6195895;28;20393;-69
2022/03/15 10:46:29;;;;;;;1.37;0.90;;;19.20;45.50;;;;;;6195708;28;20046;-68
2022/03/15 10:49:33;;;;;;;1.48;1.17;;;19.20;45.50;;;;;;6195947;28;20062;-67
2022/03/15 10:52:40;;;;;;;1.30;0.90;;;19.20;45.50;;;;;;6195934;28;20030;-68
2022/03/15 10:55:40;;;;;;;1.13;0.80;;;19.20;45.50;;;;;;6199866;28;20065;-69
2022/03/15 10:58:49;;;;;;;1.58;0.88;;;19.20;45.50;;;;;;6195887;28;20449;-69
2022/03/15 11:01:51;;;;;;;1.60;1.00;;;19.20;45.50;;;;;;6195978;28;20034;-68
2022/03/15 11:04:52;;;;;;;1.58;1.02;;;19.20;45.50;;;;;;6195903;28;20440;-68
2022/03/15 11:07:53;;;;;;;1.60;1.10;;;19.20;45.60;;;;;;6196104;28;20944;-68
2022/03/15 11:10:54;;;;;;;1.33;0.93;;;19.20;45.60;;;;;;6195775;28;20031;-69
2022/03/15 11:14:05;;;;;;;1.27;0.82;;;19.20;45.60;;;;;;6198292;28;20475;-68
2022/03/15 11:17:08;;;;;;;2.22;1.10;;;19.20;45.60;;;;;;6200477;28;20435;-69
2022/03/15 11:20:09;;;;;;;1.38;0.85;;;19.20;45.60;;;;;;6200923;28;20093;-68
2022/03/15 11:23:15;;;;;;;1.42;1.00;;;19.20;45.60;;;;;;6200344;28;20030;-68
2022/03/15 11:26:21;;;;;;;1.13;0.90;;;19.20;45.60;;;;;;6200259;28;20050;-68
2022/03/15 11:29:25;;;;;;;1.13;0.82;;;19.20;45.60;;;;;;6200461;28;20134;-69
2022/03/15 11:32:25;;;;;;;2.17;1.05;;;19.20;45.60;;;;;;6200622;28;20116;-69
2022/03/15 11:35:29;;;;;;;2.22;1.10;;;19.10;45.50;;;;;;6200037;28;20034;-67
2022/03/15 11:38:30;;;;;;;1.15;0.90;;;19.20;45.60;;;;;;6200069;28;20041;-68
2022/03/15 11:41:32;;;;;;;0.93;0.80;;;19.20;45.50;;;;;;6200065;28;20038;-68
2022/03/15 11:44:50;;;;;;;1.33;1.05;;;19.20;45.50;;;;;;6199723;28;20028;-68
2022/03/15 11:48:22;;;;;;;1.80;0.98;;;19.20;45.50;;;;;;6199974;28;20033;-68
2022/03/15 11:51:50;;;;;;;1.58;1.00;;;19.20;45.60;;;;;;6200002;28;20113;-69
2022/03/15 11:54:59;;;;;;;2.83;1.00;;;19.20;45.50;;;;;;6200063;28;20026;-68
2022/03/15 11:58:04;;;;;;;2.15;1.02;;;19.20;45.60;;;;;;6199565;28;20396;-69
2022/03/15 12:01:09;;;;;;;1.60;1.00;;;19.20;45.60;;;;;;6200020;28;20022;-68
2022/03/15 12:04:11;;;;;;;1.27;0.90;;;19.20;45.60;;;;;;6199799;28;20477;-68
2022/03/15 12:07:12;;;;;;;0.88;0.68;;;19.20;45.60;;;;;;6199945;28;20050;-69
2022/03/15 12:10:28;;;;;;;1.67;0.93;;;19.20;45.60;;;;;;6199484;28;20508;-69
2022/03/15 12:13:37;;;;;;;2.00;1.00;;;19.20;45.60;;;;;;6199256;28;20030;-69
2022/03/15 12:16:49;;;;;;;1.65;0.80;;;19.20;45.60;;;;;;6199104;28;20058;-69
2022/03/15 12:19:51;;;;;;;1.33;0.80;;;19.20;45.60;;;;;;6199224;28;20472;-68
2022/03/15 12:22:59;;;;;;;1.13;0.73;;;19.20;45.60;;;;;;6199321;28;20029;-68
2022/03/15 12:26:00;;;;;;;1.00;0.88;;;19.20;45.60;;;;;;6197772;28;20046;-68
2022/03/15 12:29:03;;;;;;;1.05;0.90;;;19.20;45.70;;;;;;6198947;28;20037;-68
2022/03/15 12:32:13;;;;;;;1.73;1.00;;;19.20;45.70;;;;;;6199265;28;20066;-68
2022/03/15 12:35:14;;;;;;;0.90;0.70;;;19.20;45.70;;;;;;6199068;28;20026;-69
2022/03/15 12:38:15;;;;;;;1.23;0.73;;;19.20;45.70;;;;;;6199042;28;20042;-69
2022/03/15 12:41:24;;;;;;;1.35;0.90;;;19.20;45.70;;;;;;6198572;28;20109;-68
2022/03/15 12:45:06;;;;;;;1.35;0.88;;;19.20;45.70;;;;;;6198863;28;20035;-67
2022/03/15 12:48:07;;;;;;;2.20;1.00;;;19.20;45.70;;;;;;6197511;28;20354;-68
2022/03/15 12:51:17;;;;;;;2.13;1.13;;;19.20;45.70;;;;;;6198300;28;20029;-68
2022/03/15 12:54:17;;;;;;;0.65;0.65;;;19.20;45.70;;;;;;6198656;28;20141;-68
2022/03/15 12:57:20;;;;;;;1.33;0.93;;;19.20;45.60;;;;;;6199046;28;20505;-69
2022/03/15 13:00:24;;;;;;;1.45;1.05;;;19.20;45.60;;;;;;6196710;28;20445;-69
2022/03/15 13:03:25;;;;;;;1.10;0.70;;;19.20;45.60;;;;;;6198598;28;20037;-69
2022/03/15 13:06:26;;;;;;;0.85;0.70;;;19.20;45.60;;;;;;6198496;28;20034;-69
2022/03/15 13:09:27;;;;;;;0.93;0.60;;;19.20;45.60;;;;;;6198618;28;20335;-67
2022/03/15 13:12:33;;;;;;;1.33;0.90;;;19.20;45.70;;;;;;6197961;28;20061;-69
2022/03/15 13:15:34;;;;;;;0.80;0.70;;;19.20;45.70;;;;;;6198282;28;20426;-68
2022/03/15 13:18:36;;;;;;;0.60;0.55;;;19.20;45.70;;;;;;6198411;28;20026;-68
2022/03/15 13:21:39;;;;;;;1.13;0.75;;;19.20;45.60;;;;;;6197291;28;20026;-69
2022/03/15 13:24:39;;;;;;;1.00;0.80;;;19.20;45.70;;;;;;6197921;28;20033;-69
2022/03/15 13:27:40;;;;;;;1.02;0.70;;;19.20;45.70;;;;;;6197807;28;20054;-68
2022/03/15 13:30:43;;;;;;;1.05;0.80;;;19.20;45.70;;;;;;6197593;28;20465;-69
2022/03/15 13:33:51;;;;;;;0.88;0.70;;;19.20;45.80;;;;;;6197717;28;20035;-68
2022/03/15 13:36:51;;;;;;;1.38;0.90;;;19.20;45.70;;;;;;6197716;28;20093;-68
2022/03/15 13:39:52;;;;;;;1.13;0.82;;;19.20;45.70;;;;;;6197728;28;20022;-68
2022/03/15 13:42:53;;;;;;;0.93;0.80;;;19.20;45.70;;;;;;6197675;28;20473;-68
2022/03/15 13:45:54;;;;;;;2.35;1.10;;;19.20;45.80;;;;;;6197296;28;20031;-69
2022/03/15 13:48:55;;;;;;;1.60;0.90;;;19.20;45.70;;;;;;6197606;28;20031;-69
2022/03/15 13:52:07;;;;;;;1.33;0.80;;;19.20;45.80;;;;;;6196990;28;20440;-68
2022/03/15 13:55:10;;;;;;;1.30;0.85;;;19.20;45.80;;;;;;6197149;28;20031;-68
2022/03/15 13:58:10;;;;;;;1.85;0.93;;;19.20;45.80;;;;;;6197009;28;20034;-68
2022/03/15 14:01:11;;;;;;;0.70;0.63;;;19.20;45.80;;;;;;6197435;28;20126;-68
2022/03/15 14:04:15;;;;;;;0.95;0.80;;;19.20;45.80;;;;;;6197141;28;20564;-68
2022/03/15 14:07:22;;;;;;;1.23;0.90;;;19.20;45.80;;;;;;6197248;28;20035;-68
2022/03/15 14:10:22;;;;;;;1.63;0.80;;;19.20;45.70;;;;;;6196682;28;20019;-68
2022/03/15 14:13:24;;;;;;;2.83;0.77;;;19.20;45.70;;;;;;6196737;28;20485;-68
2022/03/15 14:16:36;;;;;;;1.83;0.80;;;19.20;45.70;;;;;;6196524;28;20388;-67
2022/03/15 14:19:51;;;;;;;1.38;0.90;;;19.20;45.70;;;;;;6196354;28;20118;-68
2022/03/15 14:22:53;;;;;;;0.75;0.70;;;19.20;45.70;;;;;;6196780;28;20030;-67
2022/03/15 14:26:00;;;;;;;1.38;0.80;;;19.20;45.70;;;;;;6198784;28;20062;-69
2022/03/15 14:29:11;;;;;;;0.93;0.65;;;19.20;45.70;;;;;;6196342;28;20093;-68
2022/03/15 14:32:12;;;;;;;1.15;0.80;;;19.20;45.70;;;;;;6196711;28;20032;-68
2022/03/15 14:35:14;;;;;;;1.40;1.00;;;19.20;45.70;;;;;;6196743;28;20031;-68
2022/03/15 14:38:21;;;;;;;1.02;0.90;;;19.20;45.70;;;;;;6196483;28;20042;-68
2022/03/15 14:41:22;;;;;;;1.17;0.85;;;19.20;45.80;;;;;;6196364;28;20073;-68
2022/03/15 14:44:26;;;;;;;1.17;0.90;;;19.20;45.80;;;;;;6196284;28;20029;-69
2022/03/15 14:47:28;;;;;;;1.17;0.77;;;19.20;45.80;;;;;;6195942;28;20532;-69
2022/03/15 14:50:30;;;;;;;1.50;0.95;;;19.20;45.80;;;;;;6195807;28;20030;-68
2022/03/15 14:53:33;;;;;;;0.82;0.70;;;19.20;45.80;;;;;;6195559;28;20073;-68
2022/03/15 14:56:38;;;;;;;0.85;0.80;;;19.20;45.80;;;;;;6195698;28;20037;-68
2022/03/15 14:59:39;;;;;;;0.52;0.50;;;19.20;45.80;;;;;;6195818;28;20034;-67
2022/03/15 15:02:39;;;;;;;1.27;0.85;;;19.20;45.80;;;;;;6196336;28;20437;-69
2022/03/15 15:05:42;;;;;;;1.63;0.90;;;19.20;45.80;;;;;;6196380;28;20101;-69
2022/03/15 15:08:44;;;;;;;1.05;0.80;;;19.20;45.80;;;;;;6196386;28;20037;-68
2022/03/15 15:11:45;;;;;;;0.80;0.60;;;19.20;45.80;;;;;;6196410;28;20031;-68
2022/03/15 15:14:48;;;;;;;1.70;0.90;;;19.20;45.80;;;;;;6196576;28;20073;-68
2022/03/15 15:17:48;;;;;;;1.27;0.85;;;19.20;45.80;;;;;;6195225;28;20081;-68
2022/03/15 15:20:49;;;;;;;0.95;0.75;;;19.20;45.80;;;;;;6195811;28;20030;-68
2022/03/15 15:23:52;;;;;;;1.67;1.10;;;19.20;45.80;;;;;;6195743;28;20030;-69
2022/03/15 15:26:55;;;;;;;1.00;0.70;;;19.20;46.40;;;;;;6195747;28;20038;-68
2022/03/15 15:29:56;;;;;;;1.27;0.90;;;19.20;45.80;;;;;;6195963;28;20109;-69
2022/03/15 15:32:57;;;;;;;3.38;0.63;;;19.20;45.80;;;;;;6195983;28;20022;-68
2022/03/15 15:35:57;;;;;;;2.25;0.88;;;19.20;45.80;;;;;;6195809;28;20026;-69
2022/03/15 15:39:02;;;;;;;1.15;0.80;;;19.20;45.80;;;;;;6195414;28;20038;-69
2022/03/15 15:42:04;;;;;;;0.88;0.80;;;19.20;45.80;;;;;;6195772;28;20027;-69
2022/03/15 15:45:06;;;;;;;1.25;0.70;;;19.20;45.80;;;;;;6195543;28;20401;-69
2022/03/15 15:48:11;;;;;;;1.13;0.63;;;19.20;45.80;;;;;;6195633;28;20027;-68
2022/03/15 15:51:12;;;;;;;1.33;0.80;;;19.20;45.80;;;;;;6195541;28;20030;-69
2022/03/15 15:54:14;;;;;;;1.10;0.90;;;19.20;45.80;;;;;;6195500;28;20041;-69